Ceara-Mirim, Brazil
Current Conditions -  °F | °C
As of 12:00 AM on Saturday 29 Nov 2014 (Local Time) from SBNT Reporting Station
Scattered Clouds Scattered Clouds  
Wind Chill: 79°   Ceiling: Unl
Heat Index: 81°   Visibility: 6mi
Dew Point: 70°   Wind: 10mph
Humidity: 74%   Direction: 130°SE
Pressure: 29.91"   Gusts: NA
Location:  5.63°S, 35.43°W
Report Text: SBNT 290300Z 13009KT 9999 SCT018 26/21 Q1013
Loading
Personal Weather Stations






























Interactive Weather Map New forecast layout! Learn more

10-Day Weather Forecast

Advertisements
Track Severe Weather on mobile